Time;durP1;ratioP1;P1;durP2;ratioP2;P2;SDS_P1;SDS_P2;PMS_P1;PMS_P2;Temp;Humidity;BMP_temperature;BMP_pressure;BME280_temperature;BME280_humidity;BME280_pressure;Samples;Min_cycle;Max_cycle;Signal;HPM_P1;HPM_P2
2023/12/15 00:00:30;;;;;;;;;;;17.10;55.40;;;;;;5067656;28;42708;-84
2023/12/15 00:02:56;;;;;;;;;;;17.00;55.40;;;;;;5067165;28;42923;-84
2023/12/15 00:05:21;;;;;;;;;;;15.80;54.70;;;;;;5065988;28;43519;-77
2023/12/15 00:07:47;;;;;;;;;;;21.50;57.70;;;;;;5047739;28;43071;-84
2023/12/15 00:10:13;;;;;;;;;;;17.10;54.90;;;;;;5066405;28;42918;-81
2023/12/15 00:12:38;;;;;;;;;;;17.10;54.90;;;;;;5066918;28;42980;-83
2023/12/15 00:15:04;;;;;;;;;;;17.10;55.40;;;;;;5066430;28;43879;-84
2023/12/15 00:17:29;;;;;;;;;;;17.10;55.00;;;;;;5065820;28;43823;-83
2023/12/15 00:19:55;;;;;;;;;;;17.00;55.40;;;;;;5066059;28;43205;-84
2023/12/15 00:22:20;;;;;;;;;;;17.10;55.00;;;;;;5066496;28;42913;-77
2023/12/15 00:24:46;;;;;;;;;;;17.00;55.00;;;;;;5065786;28;44017;-81
2023/12/15 00:27:11;;;;;;;;;;;17.00;54.90;;;;;;5065905;28;42936;-78
2023/12/15 00:29:37;;;;;;;;;;;17.10;55.70;;;;;;5067173;28;43016;-82
2023/12/15 00:32:02;;;;;;;;;;;17.00;55.10;;;;;;5066912;28;43062;-83
2023/12/15 00:34:28;;;;;;;;;;;17.10;55.00;;;;;;5048200;28;44846;-84
2023/12/15 00:36:53;;;;;;;;;;;16.90;54.90;;;;;;5066661;28;42955;-84
2023/12/15 00:39:19;;;;;;;;;;;17.10;55.50;;;;;;5066912;28;42814;-86
2023/12/15 00:41:45;;;;;;;;;;;17.10;55.60;;;;;;5067054;28;43026;-77
2023/12/15 00:44:10;;;;;;;;;;;17.10;55.10;;;;;;5065256;28;42996;-81
2023/12/15 00:46:35;;;;;;;;;;;17.10;55.50;;;;;;5067371;28;43057;-81
2023/12/15 00:49:01;;;;;;;;;;;17.00;55.50;;;;;;5066589;28;43671;-81
2023/12/15 00:51:27;;;;;;;;;;;17.00;55.80;;;;;;5065911;28;42971;-83
2023/12/15 00:53:52;;;;;;;;;;;17.10;55.60;;;;;;5065845;28;42967;-84
2023/12/15 00:56:18;;;;;;;;;;;16.90;54.80;;;;;;5066014;28;42847;-83
2023/12/15 00:58:43;;;;;;;;;;;17.10;55.40;;;;;;5065201;28;43377;-83
2023/12/15 01:01:09;;;;;;;;;;;17.10;55.60;;;;;;5065684;28;42940;-82
2023/12/15 01:03:34;;;;;;;;;;;17.10;54.90;;;;;;5065213;28;42899;-77
2023/12/15 01:06:00;;;;;;;;;;;17.10;55.60;;;;;;5066069;28;43056;-83
2023/12/15 01:08:25;;;;;;;;;;;17.00;54.70;;;;;;5066484;28;43029;-85
2023/12/15 01:10:51;;;;;;;;;;;17.10;54.70;;;;;;5066757;28;43024;-84
2023/12/15 01:13:16;;;;;;;;;;;17.10;55.20;;;;;;5066379;28;43516;-84
2023/12/15 01:15:42;;;;;;;;;;;17.20;54.70;;;;;;5066163;28;43012;-83
2023/12/15 01:18:08;;;;;;;;;;;17.20;54.60;;;;;;5064219;28;42868;-84
2023/12/15 01:20:33;;;;;;;;;;;17.10;55.20;;;;;;5065555;28;43009;-84
2023/12/15 01:22:59;;;;;;;;;;;17.00;55.20;;;;;;5066625;28;43704;-84
2023/12/15 01:25:24;;;;;;;;;;;17.30;55.40;;;;;;5065813;28;42855;-84
2023/12/15 01:27:50;;;;;;;;;;;17.00;55.20;;;;;;5066403;28;42890;-84
2023/12/15 01:30:15;;;;;;;;;;;17.00;55.10;;;;;;5065699;28;42938;-81
2023/12/15 01:38:47;;;;;;;;;;;17.00;54.50;;;;;;5023231;28;42761;-79
2023/12/15 01:41:13;;;;;;;;;;;17.00;54.50;;;;;;5025546;28;43316;-78
2023/12/15 01:43:38;;;;;;;;;;;16.90;54.50;;;;;;5025808;28;43738;-85
2023/12/15 01:46:04;;;;;;;;;;;17.10;55.20;;;;;;5025298;28;42931;-84
2023/12/15 01:51:05;;;;;;;;;;;17.00;54.30;;;;;;5081942;22;43255;-80
2023/12/15 01:53:30;;;;;;;;;;;16.90;54.30;;;;;;5065795;28;42921;-84
2023/12/15 01:55:56;;;;;;;;;;;17.00;54.90;;;;;;5069860;28;42935;-84
2023/12/15 01:58:21;;;;;;;;;;;17.00;54.40;;;;;;5073946;28;42879;-80
2023/12/15 02:00:47;;;;;;;;;;;16.90;55.00;;;;;;5073162;28;42823;-80
2023/12/15 02:03:13;;;;;;;;;;;17.00;55.00;;;;;;5067360;28;43551;-76
2023/12/15 02:05:39;;;;;;;;;;;17.20;54.70;;;;;;5067013;28;42934;-79
2023/12/15 02:08:04;;;;;;;;;;;17.00;55.10;;;;;;5065437;28;42899;-81
2023/12/15 02:10:30;;;;;;;;;;;17.10;55.20;;;;;;5066359;28;42916;-84
2023/12/15 02:12:55;;;;;;;;;;;17.00;54.50;;;;;;5064226;28;44054;-84
2023/12/15 02:15:21;;;;;;;;;;;17.00;55.20;;;;;;5067735;28;42948;-84
2023/12/15 02:17:46;;;;;;;;;;;17.20;54.70;;;;;;5065288;28;42978;-84
2023/12/15 02:20:12;;;;;;;;;;;17.00;54.60;;;;;;5065231;28;42989;-84
2023/12/15 02:22:39;;;;;;;;;;;16.90;55.10;;;;;;5065366;28;43381;-81
2023/12/15 02:25:04;;;;;;;;;;;17.00;54.70;;;;;;5065926;28;43029;-84
2023/12/15 02:27:30;;;;;;;;;;;17.00;55.00;;;;;;5065484;28;43472;-81
2023/12/15 02:29:55;;;;;;;;;;;16.90;54.40;;;;;;5065351;28;42760;-83
2023/12/15 02:32:21;;;;;;;;;;;17.00;54.60;;;;;;5065919;28;42792;-84
2023/12/15 02:34:46;;;;;;;;;;;17.10;54.70;;;;;;5065563;28;42978;-85
2023/12/15 02:37:12;;;;;;;;;;;17.00;54.70;;;;;;5065360;28;44170;-83
2023/12/15 02:39:38;;;;;;;;;;;17.00;55.40;;;;;;5065477;28;42954;-82
2023/12/15 02:44:33;;;;;;;;;;;17.00;54.30;;;;;;5067290;28;43539;-85
2023/12/15 02:46:59;;;;;;;;;;;17.00;54.80;;;;;;5068752;28;43093;-85
2023/12/15 02:49:24;;;;;;;;;;;17.00;54.30;;;;;;5069431;28;42847;-81
2023/12/15 02:51:50;;;;;;;;;;;16.90;54.30;;;;;;5069115;28;42794;-84
2023/12/15 02:54:15;;;;;;;;;;;17.00;55.00;;;;;;5068940;28;43085;-83
2023/12/15 02:56:41;;;;;;;;;;;17.00;54.30;;;;;;5068402;28;42929;-84
2023/12/15 02:59:06;;;;;;;;;;;17.00;54.90;;;;;;5067400;28;42909;-78
2023/12/15 03:01:32;;;;;;;;;;;16.90;54.90;;;;;;5068481;28;42873;-81
2023/12/15 03:03:57;;;;;;;;;;;17.00;54.90;;;;;;5050325;28;42994;-84
2023/12/15 03:06:23;;;;;;;;;;;16.90;54.30;;;;;;5068172;28;43943;-85
2023/12/15 03:08:48;;;;;;;;;;;16.90;55.10;;;;;;5067885;28;42917;-82
2023/12/15 03:11:14;;;;;;;;;;;17.00;55.00;;;;;;5068101;28;43621;-86
2023/12/15 03:13:40;;;;;;;;;;;17.00;55.10;;;;;;5068493;28;42912;-78
2023/12/15 03:16:08;;;;;;;;;;;16.90;54.90;;;;;;5067989;28;42893;-84
2023/12/15 03:18:33;;;;;;;;;;;17.00;54.80;;;;;;5067808;28;42945;-86
2023/12/15 03:20:59;;;;;;;;;;;17.00;55.00;;;;;;5056493;28;42953;-86
2023/12/15 03:23:25;;;;;;;;;;;17.00;54.60;;;;;;5069420;22;43048;-83
2023/12/15 03:25:50;;;;;;;;;;;17.10;54.70;;;;;;5068200;28;42874;-82
2023/12/15 03:28:16;;;;;;;;;;;16.90;55.10;;;;;;5067970;28;42878;-86
2023/12/15 03:30:41;;;;;;;;;;;16.90;54.50;;;;;;5067904;28;43114;-86
2023/12/15 03:33:07;;;;;;;;;;;16.90;55.00;;;;;;5067892;28;42926;-86
2023/12/15 03:35:32;;;;;;;;;;;16.90;55.00;;;;;;5067471;28;42890;-85
2023/12/15 03:37:58;;;;;;;;;;;17.00;55.10;;;;;;5068175;28;43072;-85
2023/12/15 03:40:23;;;;;;;;;;;16.90;54.30;;;;;;5067257;28;43351;-85
2023/12/15 03:42:49;;;;;;;;;;;17.10;54.50;;;;;;5068040;28;43029;-83
2023/12/15 03:45:14;;;;;;;;;;;17.00;55.10;;;;;;5066611;28;43072;-85
2023/12/15 03:47:40;;;;;;;;;;;17.00;54.60;;;;;;5067663;28;42955;-86
2023/12/15 03:50:06;;;;;;;;;;;16.90;54.60;;;;;;5066545;28;42985;-86
2023/12/15 03:52:32;;;;;;;;;;;16.90;54.90;;;;;;5067000;28;42830;-79
2023/12/15 03:54:57;;;;;;;;;;;17.00;54.60;;;;;;5066914;28;44380;-85
2023/12/15 03:57:23;;;;;;;;;;;17.00;54.60;;;;;;5067107;28;43123;-85
2023/12/15 03:59:48;;;;;;;;;;;16.90;55.20;;;;;;5067301;28;43540;-81
2023/12/15 04:02:15;;;;;;;;;;;16.90;54.60;;;;;;5066795;28;42978;-84
2023/12/15 04:04:41;;;;;;;;;;;16.90;55.30;;;;;;5067134;28;43530;-84
2023/12/15 04:07:07;;;;;;;;;;;17.00;54.60;;;;;;5067634;28;42996;-85
2023/12/15 04:09:32;;;;;;;;;;;16.90;55.00;;;;;;5067076;28;42978;-85
2023/12/15 04:11:58;;;;;;;;;;;17.10;54.60;;;;;;5093319;22;42922;-84
2023/12/15 04:14:23;;;;;;;;;;;16.90;55.10;;;;;;5073595;28;42989;-86
2023/12/15 04:16:49;;;;;;;;;;;16.90;55.10;;;;;;5074525;28;43475;-86
2023/12/15 04:19:14;;;;;;;;;;;16.90;55.20;;;;;;5067709;28;42954;-86
2023/12/15 04:21:40;;;;;;;;;;;17.00;54.70;;;;;;5067524;28;43113;-83
2023/12/15 04:24:06;;;;;;;;;;;16.90;54.60;;;;;;5066744;28;42921;-84
2023/12/15 04:26:32;;;;;;;;;;;16.80;54.60;;;;;;5067177;28;42967;-85
2023/12/15 04:28:58;;;;;;;;;;;17.00;55.20;;;;;;5067077;28;43807;-81
2023/12/15 04:31:23;;;;;;;;;;;16.90;55.80;;;;;;5067322;28;42903;-86
2023/12/15 04:33:49;;;;;;;;;;;17.00;54.70;;;;;;5065990;28;42997;-85
2023/12/15 04:36:17;;;;;;;;;;;16.90;54.80;;;;;;5066724;28;42884;-85
2023/12/15 04:38:42;;;;;;;;;;;17.00;55.20;;;;;;5066938;28;42838;-82
2023/12/15 04:41:15;;;;;;;;;;;16.90;55.10;;;;;;5067048;28;43197;-85
2023/12/15 04:43:41;;;;;;;;;;;16.90;54.70;;;;;;5066877;28;42922;-85
2023/12/15 04:46:06;;;;;;;;;;;17.00;54.70;;;;;;5066565;28;42866;-87
2023/12/15 04:48:32;;;;;;;;;;;16.90;55.20;;;;;;5066727;28;43003;-86
2023/12/15 04:50:57;;;;;;;;;;;17.00;53.80;;;;;;5575776;22;43093;-79
2023/12/15 04:53:23;;;;;;;;;;;16.90;53.80;;;;;;5064561;28;43893;-85
2023/12/15 04:55:48;;;;;;;;;;;17.00;54.50;;;;;;5066263;28;42973;-78
2023/12/15 04:58:14;;;;;;;;;;;16.80;53.90;;;;;;5065785;28;43646;-86
2023/12/15 05:00:39;;;;;;;;;;;16.90;54.00;;;;;;5066657;28;43026;-85
2023/12/15 05:03:05;;;;;;;;;;;16.80;54.50;;;;;;5065212;28;43067;-86
2023/12/15 05:05:30;;;;;;;;;;;16.90;54.00;;;;;;5065612;28;43004;-84
2023/12/15 05:07:56;;;;;;;;;;;16.80;54.60;;;;;;5064681;28;43488;-86
2023/12/15 05:10:21;;;;;;;;;;;16.90;54.00;;;;;;5259375;22;44098;-86
2023/12/15 05:12:47;;;;;;;;;;;16.80;54.50;;;;;;5066517;28;42850;-85
2023/12/15 05:15:12;;;;;;;;;;;16.90;54.10;;;;;;5066124;28;43045;-85
2023/12/15 05:17:38;;;;;;;;;;;16.90;54.10;;;;;;5063950;28;42981;-82
2023/12/15 05:20:04;;;;;;;;;;;16.90;54.10;;;;;;5065282;28;43062;-84
2023/12/15 05:22:29;;;;;;;;;;;16.80;53.80;;;;;;5345889;22;43878;-84
2023/12/15 05:24:55;;;;;;;;;;;17.00;54.60;;;;;;5065775;28;42978;-86
2023/12/15 05:27:20;;;;;;;;;;;16.90;54.00;;;;;;5065048;28;43647;-85
2023/12/15 05:29:46;;;;;;;;;;;16.90;54.70;;;;;;5064976;28;43124;-85
2023/12/15 05:32:12;;;;;;;;;;;16.80;54.70;;;;;;5065144;28;43663;-85
2023/12/15 05:34:38;;;;;;;;;;;16.90;54.10;;;;;;5065374;28;42989;-83
2023/12/15 05:37:03;;;;;;;;;;;16.80;54.10;;;;;;5066192;28;42911;-82
2023/12/15 05:39:31;;;;;;;;;;;16.90;54.10;;;;;;5066050;28;42989;-81
2023/12/15 05:41:57;;;;;;;;;;;16.70;54.00;;;;;;5046857;28;45647;-81
2023/12/15 05:44:22;;;;;;;;;;;16.80;54.10;;;;;;5066055;28;43219;-81
2023/12/15 05:59:00;;;;;;;;;;;16.80;53.80;;;;;;5056407;28;42958;-81
2023/12/15 06:01:26;;;;;;;;;;;16.80;54.00;;;;;;5064107;28;43072;-81
2023/12/15 06:09:58;;;;;;;;;;;;;;;;;;5059346;28;43019;-82
2023/12/15 06:12:26;;;;;;;;;;;16.90;54.00;;;;;;5036057;28;45197;-82
2023/12/15 06:14:51;;;;;;;;;;;16.90;54.00;;;;;;5046599;28;43776;-81
2023/12/15 06:17:17;;;;;;;;;;;16.80;53.30;;;;;;5053727;28;42863;-82
2023/12/15 06:19:42;;;;;;;;;;;16.80;51.90;;;;;;5126995;22;44192;-82
2023/12/15 06:25:11;;;;;;;;;;;16.80;50.90;;;;;;5061794;28;42745;-82
2023/12/15 06:27:37;;;;;;;;;;;16.80;50.30;;;;;;5067891;28;42998;-86
2023/12/15 06:30:03;;;;;;;;;;;16.70;50.20;;;;;;5070474;28;44233;-85
2023/12/15 06:32:28;;;;;;;;;;;16.70;49.90;;;;;;5070749;28;43232;-84
2023/12/15 06:34:54;;;;;;;;;;;16.70;49.50;;;;;;5065008;28;43065;-85
2023/12/15 06:37:19;;;;;;;;;;;;;;;;;;5364512;22;42960;-84
2023/12/15 06:39:45;;;;;;;;;;;16.80;49.00;;;;;;5050748;28;43069;-81
2023/12/15 07:25:11;;;;;;;;;;;16.60;47.60;;;;;;5062690;28;42910;-83
2023/12/15 07:30:39;;;;;;;;;;;16.80;47.80;;;;;;5065656;28;42866;-83
2023/12/15 08:31:05;;;;;;;;;;;16.50;47.60;;;;;;4926973;28;42836;-82
2023/12/15 08:43:00;;;;;;;;;;;16.50;48.40;;;;;;4937714;28;43096;-82
2023/12/15 08:45:26;;;;;;;;;;;16.60;48.30;;;;;;4920434;28;44216;-83
2023/12/15 08:47:52;;;;;;;;;;;16.60;48.00;;;;;;4937321;28;43052;-82
2023/12/15 08:50:17;;;;;;;;;;;16.50;48.50;;;;;;4929897;28;42968;-83
2023/12/15 08:52:43;;;;;;;;;;;16.50;48.70;;;;;;4929345;28;43005;-83
2023/12/15 08:55:09;;;;;;;;;;;16.50;48.00;;;;;;4928839;28;43001;-83
2023/12/15 08:57:35;;;;;;;;;;;16.60;48.70;;;;;;4929067;28;43055;-83
2023/12/15 09:00:00;;;;;;;;;;;16.50;48.70;;;;;;4928786;28;42940;-82
2023/12/15 09:02:28;;;;;;;;;;;16.60;48.80;;;;;;4928873;28;42871;-83
2023/12/15 09:04:54;;;;;;;;;;;16.70;49.20;;;;;;4929441;28;42897;-83
2023/12/15 09:07:19;;;;;;;;;;;16.40;48.20;;;;;;4928957;28;42832;-83
2023/12/15 09:09:45;;;;;;;;;;;16.40;48.40;;;;;;4928848;28;43381;-83
2023/12/15 09:12:10;;;;;;;;;;;16.60;48.40;;;;;;4922797;28;42812;-83
2023/12/15 09:14:36;;;;;;;;;;;16.30;48.20;;;;;;4928860;28;43025;-82
2023/12/15 09:17:02;;;;;;;;;;;16.60;48.30;;;;;;4929096;28;42884;-83
2023/12/15 09:50:20;;;;;;;;;;;16.60;48.40;;;;;;5027005;28;42843;-83
2023/12/15 10:05:06;;;;;;;;;;;16.70;48.70;;;;;;5023067;28;42856;-83
2023/12/15 10:48:52;;;;;;;;;;;16.60;50.30;;;;;;5022914;28;42735;-83
2023/12/15 10:51:19;;;;;;;;;;;16.60;50.70;;;;;;5025258;28;42915;-83
2023/12/15 10:53:45;;;;;;;;;;;16.60;50.80;;;;;;5025423;28;42963;-83
2023/12/15 10:56:11;;;;;;;;;;;16.50;50.90;;;;;;5025672;28;43272;-83
2023/12/15 10:58:36;;;;;;;;;;;16.60;51.10;;;;;;5026999;28;43037;-83
2023/12/15 11:01:03;;;;;;;;;;;16.60;51.20;;;;;;5034199;28;42856;-82
2023/12/15 11:03:29;;;;;;;;;;;16.60;51.80;;;;;;5016718;28;42936;-83
2023/12/15 11:05:55;;;;;;;;;;;16.70;51.50;;;;;;5032335;28;42709;-83
2023/12/15 11:17:07;;;;;;;;;;;16.60;51.40;;;;;;5067768;28;42920;-83
2023/12/15 11:31:57;;;;;;;;;;;16.50;51.20;;;;;;5025598;28;42826;-83
2023/12/15 11:34:51;;;;;;;;;;;16.70;51.50;;;;;;5024917;28;44312;-83
2023/12/15 11:43:25;;;;;;;;;;;16.60;51.60;;;;;;5026106;28;43120;-84
2023/12/15 11:55:05;;;;;;;;;;;16.60;51.50;;;;;;5068653;28;43004;-84
2023/12/15 11:58:09;;;;;;;;;;;16.60;51.80;;;;;;5067644;28;43174;-83
2023/12/15 12:00:34;;;;;;;;;;;16.50;51.60;;;;;;5068187;28;43052;-82
2023/12/15 12:09:34;;;;;;;;;;;16.50;51.70;;;;;;5065213;28;43025;-84
2023/12/15 12:12:00;;;;;;;;;;;16.50;51.60;;;;;;5051914;28;42980;-83
2023/12/15 12:14:27;;;;;;;;;;;16.70;51.90;;;;;;5067304;28;43433;-82
2023/12/15 12:16:53;;;;;;;;;;;16.50;51.80;;;;;;5067086;28;43055;-82
2023/12/15 12:19:21;;;;;;;;;;;13.40;50.80;;;;;;5067292;28;43271;-82
2023/12/15 12:21:50;;;;;;;;;;;16.50;52.50;;;;;;5067514;28;43221;-81
2023/12/15 12:24:15;;;;;;;;;;;16.50;52.40;;;;;;5066819;28;42958;-82
2023/12/15 12:26:41;;;;;;;;;;;16.50;52.50;;;;;;5067382;28;43246;-82
2023/12/15 12:29:06;;;;;;;;;;;16.50;51.90;;;;;;5066212;28;42953;-82
2023/12/15 12:31:32;;;;;;;;;;;16.50;52.50;;;;;;5066252;28;42995;-81
2023/12/15 12:33:57;;;;;;;;;;;16.60;52.50;;;;;;5064765;28;43154;-81
2023/12/15 12:36:23;;;;;;;;;;;16.50;52.50;;;;;;5065967;28;42988;-81
2023/12/15 12:38:49;;;;;;;;;;;16.50;52.60;;;;;;5066683;28;43386;-82
2023/12/15 12:41:15;;;;;;;;;;;16.50;52.40;;;;;;5064823;28;42946;-79
2023/12/15 12:43:41;;;;;;;;;;;16.50;52.50;;;;;;5066421;28;43863;-81
2023/12/15 12:46:09;;;;;;;;;;;16.50;52.50;;;;;;5065773;28;42992;-81
2023/12/15 12:48:35;;;;;;;;;;;16.50;52.40;;;;;;5064788;28;43719;-81
2023/12/15 12:51:00;;;;;;;;;;;16.50;52.40;;;;;;5065804;28;43019;-81
2023/12/15 12:53:26;;;;;;;;;;;16.50;52.50;;;;;;5065148;28;43669;-82
2023/12/15 12:55:52;;;;;;;;;;;16.40;51.90;;;;;;5065947;28;43076;-81
2023/12/15 12:58:18;;;;;;;;;;;16.40;51.80;;;;;;5065731;28;43030;-82
2023/12/15 13:00:43;;;;;;;;;;;16.50;51.90;;;;;;5064965;28;42983;-82
2023/12/15 13:03:09;;;;;;;;;;;16.50;51.80;;;;;;5064506;28;44231;-83
2023/12/15 13:05:35;;;;;;;;;;;16.60;51.80;;;;;;5065856;28;42955;-84
2023/12/15 13:08:01;;;;;;;;;;;16.60;51.90;;;;;;5065294;28;43359;-82
2023/12/15 13:10:27;;;;;;;;;;;16.50;51.80;;;;;;5065188;28;43301;-81
2023/12/15 13:12:55;;;;;;;;;;;16.50;52.40;;;;;;5065141;28;42883;-86
2023/12/15 13:15:23;;;;;;;;;;;16.50;51.60;;;;;;5066144;28;42989;-79
2023/12/15 13:17:49;;;;;;;;;;;16.50;51.80;;;;;;5066691;28;43341;-85
2023/12/15 13:20:14;;;;;;;;;;;16.60;51.70;;;;;;5065711;28;43063;-84
2023/12/15 13:25:34;;;;;;;;;;;16.60;51.70;;;;;;5061373;28;43092;-85
2023/12/15 13:28:00;;;;;;;;;;;16.50;51.70;;;;;;5060886;28;42935;-85
2023/12/15 13:30:26;;;;;;;;;;;16.50;51.60;;;;;;5064620;28;43303;-86
2023/12/15 13:32:54;;;;;;;;;;;16.50;51.60;;;;;;5065051;28;43696;-85
2023/12/15 13:43:38;;;;;;;;;;;16.60;51.50;;;;;;5060215;28;43161;-86
2023/12/15 13:49:15;;;;;;;;;;;16.60;51.60;;;;;;5060228;28;42902;-85
2023/12/15 13:51:50;;;;;;;;;;;16.70;51.60;;;;;;5076951;28;43099;-86
2023/12/15 13:54:15;;;;;;;;;;;16.60;51.50;;;;;;5064174;28;43195;-84
2023/12/15 13:56:41;;;;;;;;;;;16.60;51.50;;;;;;5046399;28;42953;-84
2023/12/15 13:59:07;;;;;;;;;;;16.60;51.50;;;;;;5064716;28;42952;-85
2023/12/15 14:01:33;;;;;;;;;;;16.50;51.30;;;;;;5064265;28;43090;-82
2023/12/15 14:03:59;;;;;;;;;;;16.60;51.50;;;;;;5063222;28;43498;-83
2023/12/15 14:06:24;;;;;;;;;;;16.70;51.50;;;;;;5064716;28;42975;-91
2023/12/15 14:08:50;;;;;;;;;;;16.50;51.40;;;;;;5051518;28;43605;-81
2023/12/15 14:11:16;;;;;;;;;;;16.70;51.50;;;;;;5063438;28;42934;-80
2023/12/15 14:13:42;;;;;;;;;;;16.50;51.40;;;;;;5064520;28;43212;-81
2023/12/15 14:16:08;;;;;;;;;;;16.70;51.50;;;;;;5064668;28;42960;-82
2023/12/15 14:18:34;;;;;;;;;;;16.60;51.50;;;;;;5064178;28;42868;-83
2023/12/15 14:20:59;;;;;;;;;;;16.50;51.40;;;;;;5061129;28;43558;-82
2023/12/15 14:23:25;;;;;;;;;;;16.60;51.40;;;;;;5061234;28;43086;-84
2023/12/15 14:25:50;;;;;;;;;;;16.50;51.40;;;;;;5049910;28;43047;-81
2023/12/15 14:28:16;;;;;;;;;;;16.40;51.30;;;;;;5064216;28;43613;-81
2023/12/15 14:30:42;;;;;;;;;;;16.50;51.40;;;;;;5063729;28;43162;-81
2023/12/15 14:33:07;;;;;;;;;;;16.60;51.30;;;;;;5063255;28;43606;-85
2023/12/15 14:35:33;;;;;;;;;;;16.40;51.20;;;;;;5064053;28;42953;-83
2023/12/15 14:37:58;;;;;;;;;;;16.50;51.90;;;;;;5065852;28;43057;-81
2023/12/15 14:40:25;;;;;;;;;;;16.50;51.50;;;;;;5064985;28;42950;-82
2023/12/15 14:42:50;;;;;;;;;;;16.40;51.30;;;;;;5068207;28;43597;-82
2023/12/15 14:45:16;;;;;;;;;;;16.60;51.30;;;;;;5068066;28;42857;-85
2023/12/15 14:47:41;;;;;;;;;;;16.60;51.30;;;;;;5057559;28;43355;-84
2023/12/15 14:50:07;;;;;;;;;;;16.80;51.50;;;;;;5067820;28;42866;-84
2023/12/15 14:52:33;;;;;;;;;;;16.50;51.20;;;;;;5065821;28;42852;-83
2023/12/15 14:54:58;;;;;;;;;;;16.50;51.10;;;;;;5067908;28;43037;-84
2023/12/15 14:57:24;;;;;;;;;;;16.50;51.30;;;;;;5068615;28;42961;-85
2023/12/15 15:00:23;;;;;;;;;;;16.60;51.40;;;;;;5067784;28;43028;-88
2023/12/15 15:02:49;;;;;;;;;;;16.60;51.30;;;;;;5043684;28;44687;-89
2023/12/15 15:05:14;;;;;;;;;;;16.60;51.40;;;;;;5057254;28;42998;-85
2023/12/15 15:07:40;;;;;;;;;;;16.60;51.40;;;;;;5082088;28;45351;-85
2023/12/15 15:10:07;;;;;;;;;;;17.10;51.70;;;;;;5067597;28;43249;-85
2023/12/15 15:12:33;;;;;;;;;;;16.50;51.50;;;;;;5049080;28;44630;-85
2023/12/15 15:15:01;;;;;;;;;;;16.40;51.50;;;;;;5065584;28;44928;-83
2023/12/15 15:17:30;;;;;;;;;;;16.60;51.70;;;;;;5062550;28;43058;-85
2023/12/15 15:19:55;;;;;;;;;;;16.50;51.70;;;;;;5080037;28;42975;-85
2023/12/15 15:22:21;;;;;;;;;;;16.50;51.70;;;;;;5067254;28;42818;-85
2023/12/15 15:24:46;;;;;;;;;;;16.40;51.70;;;;;;5048120;28;43011;-85
2023/12/15 15:27:12;;;;;;;;;;;16.60;51.80;;;;;;5055784;28;43178;-85
2023/12/15 15:29:37;;;;;;;;;;;16.60;51.90;;;;;;5048352;28;43043;-85
2023/12/15 15:32:03;;;;;;;;;;;16.50;51.90;;;;;;5067234;28;42947;-85
2023/12/15 15:34:29;;;;;;;;;;;16.70;52.00;;;;;;5072750;28;43020;-84
2023/12/15 15:36:54;;;;;;;;;;;16.40;51.80;;;;;;5076460;28;43369;-85
2023/12/15 15:39:20;;;;;;;;;;;16.40;51.90;;;;;;5074440;28;42847;-85
2023/12/15 15:41:46;;;;;;;;;;;16.50;51.90;;;;;;5067666;28;43351;-85
2023/12/15 15:44:11;;;;;;;;;;;16.50;51.90;;;;;;5049214;28;43018;-85
2023/12/15 15:46:37;;;;;;;;;;;16.60;52.00;;;;;;5066587;28;43133;-85
2023/12/15 15:49:02;;;;;;;;;;;16.60;52.10;;;;;;5064584;28;43018;-85
2023/12/15 15:51:29;;;;;;;;;;;16.60;52.00;;;;;;5047159;28;45690;-84
2023/12/15 15:53:54;;;;;;;;;;;16.60;51.90;;;;;;5066571;28;43035;-86
2023/12/15 15:56:20;;;;;;;;;;;16.70;52.00;;;;;;5048312;28;44903;-85
2023/12/15 15:58:46;;;;;;;;;;;16.80;52.10;;;;;;5064914;28;42875;-84
2023/12/15 16:01:22;;;;;;;;;;;16.70;52.00;;;;;;5065944;28;43680;-85
2023/12/15 16:03:47;;;;;;;;;;;16.80;52.10;;;;;;5064785;28;43058;-84
2023/12/15 16:06:14;;;;;;;;;;;16.70;52.10;;;;;;5066218;28;43692;-83
2023/12/15 16:08:39;;;;;;;;;;;16.70;52.00;;;;;;5046775;28;43131;-84
2023/12/15 16:11:05;;;;;;;;;;;16.80;52.10;;;;;;5047969;28;45715;-84
2023/12/15 16:13:30;;;;;;;;;;;16.60;52.00;;;;;;5066860;28;42926;-84
2023/12/15 16:15:56;;;;;;;;;;;16.70;52.00;;;;;;5066463;28;43363;-85
2023/12/15 16:18:21;;;;;;;;;;;16.80;52.20;;;;;;5048756;28;42940;-85
2023/12/15 16:20:47;;;;;;;;;;;16.70;52.10;;;;;;5065187;28;43705;-85
2023/12/15 16:23:13;;;;;;;;;;;16.70;52.10;;;;;;5065750;28;43060;-82
2023/12/15 16:25:39;;;;;;;;;;;16.70;52.70;;;;;;5064948;28;43448;-82
2023/12/15 16:28:04;;;;;;;;;;;16.70;52.20;;;;;;5066658;28;43021;-82
2023/12/15 16:30:31;;;;;;;;;;;16.60;52.20;;;;;;5067088;28;42989;-82
2023/12/15 16:32:57;;;;;;;;;;;16.70;52.30;;;;;;5067397;28;42761;-82
2023/12/15 16:35:22;;;;;;;;;;;16.70;52.30;;;;;;5066789;28;42975;-82
2023/12/15 16:37:48;;;;;;;;;;;16.70;52.30;;;;;;5048542;28;42982;-82
2023/12/15 16:40:14;;;;;;;;;;;16.60;52.30;;;;;;5044787;28;44323;-84
2023/12/15 16:42:43;;;;;;;;;;;16.70;52.40;;;;;;5045313;28;42949;-82
2023/12/15 16:45:09;;;;;;;;;;;16.90;52.40;;;;;;5046675;28;43009;-86
2023/12/15 16:47:35;;;;;;;;;;;16.90;52.50;;;;;;5044763;28;42925;-83
2023/12/15 16:50:00;;;;;;;;;;;16.80;52.40;;;;;;5046447;28;43001;-85
2023/12/15 16:52:26;;;;;;;;;;;16.70;52.40;;;;;;5046705;28;42973;-86
2023/12/15 16:54:51;;;;;;;;;;;17.00;52.60;;;;;;5046142;28;42744;-82
2023/12/15 16:57:17;;;;;;;;;;;16.80;52.50;;;;;;5046485;28;42960;-85
2023/12/15 16:59:43;;;;;;;;;;;;;;;;;;5044787;28;44571;-86
2023/12/15 17:02:08;;;;;;;;;;;16.80;52.50;;;;;;5045698;28;42910;-85
2023/12/15 17:04:34;;;;;;;;;;;16.80;52.50;;;;;;5046236;28;42987;-85
2023/12/15 17:06:59;;;;;;;;;;;16.80;52.50;;;;;;5044840;28;42840;-83
2023/12/15 17:09:26;;;;;;;;;;;16.70;52.50;;;;;;5046070;28;42959;-86
2023/12/15 17:11:51;;;;;;;;;;;16.90;52.60;;;;;;5046149;28;42992;-83
2023/12/15 17:14:17;;;;;;;;;;;16.80;52.60;;;;;;5046083;28;42969;-86
2023/12/15 17:16:44;;;;;;;;;;;16.80;52.70;;;;;;5043756;28;43049;-83
2023/12/15 17:19:11;;;;;;;;;;;16.70;52.50;;;;;;5044917;28;64317;-84
2023/12/15 17:21:43;;;;;;;;;;;16.90;52.70;;;;;;5046501;28;42839;-86
2023/12/15 17:24:08;;;;;;;;;;;16.80;52.80;;;;;;5046148;28;43002;-83
2023/12/15 17:26:37;;;;;;;;;;;16.80;52.80;;;;;;5045934;28;43051;-85
2023/12/15 17:29:02;;;;;;;;;;;16.80;52.70;;;;;;5045885;28;42942;-82
2023/12/15 17:31:28;;;;;;;;;;;16.70;52.70;;;;;;5043978;28;42971;-86
2023/12/15 17:33:53;;;;;;;;;;;16.80;52.80;;;;;;5044184;28;43636;-81
2023/12/15 17:36:19;;;;;;;;;;;16.70;52.80;;;;;;5028040;28;42936;-87
2023/12/15 17:38:44;;;;;;;;;;;16.80;52.80;;;;;;5024503;28;45375;-85
2023/12/15 17:41:10;;;;;;;;;;;16.90;52.90;;;;;;5044640;28;42927;-83
2023/12/15 17:43:35;;;;;;;;;;;16.80;52.80;;;;;;5063164;28;43000;-85
2023/12/15 17:46:01;;;;;;;;;;;;;;;;;;5048564;28;43080;-85
2023/12/15 17:48:27;;;;;;;;;;;16.90;53.00;;;;;;5063711;28;43651;-85
2023/12/15 17:50:52;;;;;;;;;;;16.80;52.90;;;;;;5063330;28;43077;-84
2023/12/15 17:53:25;;;;;;;;;;;16.80;52.90;;;;;;5071914;28;43007;-85
2023/12/15 17:55:50;;;;;;;;;;;16.90;53.20;;;;;;5064199;28;43003;-83
2023/12/15 17:58:16;;;;;;;;;;;16.90;53.00;;;;;;5060388;28;43385;-85
2023/12/15 18:00:44;;;;;;;;;;;16.90;53.10;;;;;;5028843;28;43053;-83
2023/12/15 18:03:09;;;;;;;;;;;16.80;53.00;;;;;;5044982;28;44425;-84
2023/12/15 18:05:35;;;;;;;;;;;16.80;53.00;;;;;;5052436;28;42940;-84
2023/12/15 18:08:04;;;;;;;;;;;;;;;;;;5040306;28;44417;-84
2023/12/15 18:10:30;;;;;;;;;;;16.90;53.20;;;;;;5064314;28;42924;-86
2023/12/15 18:12:55;;;;;;;;;;;16.80;53.10;;;;;;5064415;28;43165;-83
2023/12/15 18:15:21;;;;;;;;;;;16.90;53.00;;;;;;5065527;28;42824;-82
2023/12/15 18:17:47;;;;;;;;;;;16.80;53.10;;;;;;5059282;28;43110;-82
2023/12/15 18:20:13;;;;;;;;;;;16.80;53.10;;;;;;5069205;28;43390;-84
2023/12/15 18:22:39;;;;;;;;;;;17.00;53.20;;;;;;5058831;28;43050;-81
2023/12/15 18:25:05;;;;;;;;;;;16.80;53.20;;;;;;5056689;28;42916;-82
2023/12/15 18:27:31;;;;;;;;;;;16.90;53.20;;;;;;5051991;28;44541;-82
2023/12/15 18:29:59;;;;;;;;;;;16.80;53.90;;;;;;5028905;28;42996;-82
2023/12/15 18:32:25;;;;;;;;;;;16.80;53.20;;;;;;5055966;28;43458;-82
2023/12/15 18:34:50;;;;;;;;;;;17.00;53.30;;;;;;5057505;28;43181;-82
2023/12/15 18:37:17;;;;;;;;;;;16.80;53.20;;;;;;5062366;28;43064;-83
2023/12/15 18:39:43;;;;;;;;;;;17.00;53.30;;;;;;5061734;28;43087;-81
2023/12/15 18:42:09;;;;;;;;;;;17.00;53.30;;;;;;5062335;28;44351;-82
2023/12/15 18:44:35;;;;;;;;;;;17.00;53.40;;;;;;5061291;28;43127;-85
2023/12/15 18:47:01;;;;;;;;;;;16.90;53.30;;;;;;5063108;28;43904;-82
2023/12/15 18:49:27;;;;;;;;;;;17.00;53.30;;;;;;5061076;28;43002;-81
2023/12/15 18:51:52;;;;;;;;;;;16.80;53.20;;;;;;5061554;28;42999;-84
2023/12/15 18:54:18;;;;;;;;;;;16.80;53.20;;;;;;5039740;28;43096;-79
2023/12/15 18:56:43;;;;;;;;;;;16.80;53.20;;;;;;5059740;28;43668;-83
2023/12/15 18:59:09;;;;;;;;;;;16.70;53.20;;;;;;5061858;28;43078;-84